sensor_id;sensor_type;location;lat;lon;timestamp;pressure;altitude;pressure_sealevel;temperature;humidity
71151;BME280;59071;42.138;24.768;2023-05-18T00:02:21;99099.25;;;17.54;79.92
71151;BME280;59071;42.138;24.768;2023-05-18T00:04:47;99089.88;;;17.62;80.36
71151;BME280;59071;42.138;24.768;2023-05-18T00:07:13;99082.59;;;17.63;79.97
71151;BME280;59071;42.138;24.768;2023-05-18T00:09:38;99082.09;;;17.76;79.76
71151;BME280;59071;42.138;24.768;2023-05-18T00:12:05;99092.88;;;17.81;79.58
71151;BME280;59071;42.138;24.768;2023-05-18T00:14:30;99083.22;;;17.90;78.83
71151;BME280;59071;42.138;24.768;2023-05-18T00:16:56;99091.56;;;17.94;79.26
71151;BME280;59071;42.138;24.768;2023-05-18T00:19:22;99089.16;;;18.03;78.14
71151;BME280;59071;42.138;24.768;2023-05-18T00:21:48;99082.16;;;18.02;77.95
71151;BME280;59071;42.138;24.768;2023-05-18T00:24:14;99088.34;;;18.02;77.59
71151;BME280;59071;42.138;24.768;2023-05-18T00:26:41;99081.09;;;17.97;77.53
71151;BME280;59071;42.138;24.768;2023-05-18T00:29:07;99087.81;;;17.90;77.82
71151;BME280;59071;42.138;24.768;2023-05-18T00:31:33;99085.91;;;17.90;77.56
71151;BME280;59071;42.138;24.768;2023-05-18T00:34:09;99087.28;;;17.88;77.45
71151;BME280;59071;42.138;24.768;2023-05-18T00:36:35;99074.81;;;17.82;77.39
71151;BME280;59071;42.138;24.768;2023-05-18T00:39:01;99071.34;;;17.71;78.43
71151;BME280;59071;42.138;24.768;2023-05-18T00:41:26;99076.97;;;17.79;78.29
71151;BME280;59071;42.138;24.768;2023-05-18T00:43:52;99069.69;;;17.65;78.75
71151;BME280;59071;42.138;24.768;2023-05-18T00:46:18;99070.78;;;17.64;78.77
71151;BME280;59071;42.138;24.768;2023-05-18T00:48:43;99067.00;;;17.70;78.17
71151;BME280;59071;42.138;24.768;2023-05-18T00:51:08;99067.00;;;17.65;77.94
71151;BME280;59071;42.138;24.768;2023-05-18T00:53:34;99068.63;;;17.55;78.05
71151;BME280;59071;42.138;24.768;2023-05-18T00:56:01;99073.72;;;17.62;77.67
71151;BME280;59071;42.138;24.768;2023-05-18T00:58:26;99080.47;;;17.70;77.24
71151;BME280;59071;42.138;24.768;2023-05-18T01:00:51;99066.44;;;17.63;76.57
71151;BME280;59071;42.138;24.768;2023-05-18T01:03:17;99073.16;;;17.55;77.27
71151;BME280;59071;42.138;24.768;2023-05-18T01:05:45;99074.72;;;17.35;77.87
71151;BME280;59071;42.138;24.768;2023-05-18T01:08:17;99071.53;;;17.44;77.13
71151;BME280;59071;42.138;24.768;2023-05-18T01:10:43;99051.84;;;17.28;76.98
71151;BME280;59071;42.138;24.768;2023-05-18T01:13:14;99075.81;;;17.34;77.52
71151;BME280;59071;42.138;24.768;2023-05-18T01:15:45;99091.66;;;17.26;77.56
71151;BME280;59071;42.138;24.768;2023-05-18T01:18:21;99092.63;;;17.04;78.79
71151;BME280;59071;42.138;24.768;2023-05-18T01:23:27;99088.81;;;17.00;79.00
71151;BME280;59071;42.138;24.768;2023-05-18T01:28:19;99092.16;;;17.23;79.10
71151;BME280;59071;42.138;24.768;2023-05-18T01:30:45;99095.03;;;17.00;80.11
71151;BME280;59071;42.138;24.768;2023-05-18T01:33:12;99088.81;;;17.00;80.10
71151;BME280;59071;42.138;24.768;2023-05-18T01:35:38;99090.31;;;16.80;80.50
71151;BME280;59071;42.138;24.768;2023-05-18T01:38:05;99093.00;;;16.75;81.39
71151;BME280;59071;42.138;24.768;2023-05-18T01:40:32;99097.28;;;16.76;81.86
71151;BME280;59071;42.138;24.768;2023-05-18T01:43:00;99094.56;;;16.71;82.01
71151;BME280;59071;42.138;24.768;2023-05-18T01:45:27;99095.69;;;16.38;83.11
71151;BME280;59071;42.138;24.768;2023-05-18T01:47:55;99094.47;;;16.18;83.75
71151;BME280;59071;42.138;24.768;2023-05-18T01:50:31;99102.84;;;16.27;83.65
71151;BME280;59071;42.138;24.768;2023-05-18T01:55:33;99106.03;;;16.56;82.42
71151;BME280;59071;42.138;24.768;2023-05-18T01:58:00;99107.38;;;16.59;82.22
71151;BME280;59071;42.138;24.768;2023-05-18T02:00:26;99104.69;;;16.59;82.08
71151;BME280;59071;42.138;24.768;2023-05-18T02:02:51;99116.50;;;16.58;82.35
71151;BME280;59071;42.138;24.768;2023-05-18T02:05:17;99110.63;;;16.61;81.91
71151;BME280;59071;42.138;24.768;2023-05-18T02:07:42;99116.84;;;16.67;82.17
71151;BME280;59071;42.138;24.768;2023-05-18T02:10:08;99118.78;;;16.76;82.51
71151;BME280;59071;42.138;24.768;2023-05-18T02:12:33;99122.69;;;16.96;81.94
71151;BME280;59071;42.138;24.768;2023-05-18T02:14:59;99129.13;;;17.00;81.12
71151;BME280;59071;42.138;24.768;2023-05-18T02:17:29;99135.19;;;16.80;82.28
71151;BME280;59071;42.138;24.768;2023-05-18T02:19:54;99133.97;;;16.98;81.79
71151;BME280;59071;42.138;24.768;2023-05-18T02:22:20;99131.78;;;16.90;82.28
71151;BME280;59071;42.138;24.768;2023-05-18T02:24:45;99140.72;;;17.00;82.29
71151;BME280;59071;42.138;24.768;2023-05-18T02:27:10;99142.38;;;17.07;81.97
71151;BME280;59071;42.138;24.768;2023-05-18T02:29:38;99139.94;;;17.05;81.48
71151;BME280;59071;42.138;24.768;2023-05-18T02:32:03;99150.94;;;16.98;81.86
71151;BME280;59071;42.138;24.768;2023-05-18T02:34:29;99153.06;;;16.96;81.60
71151;BME280;59071;42.138;24.768;2023-05-18T02:36:56;99150.69;;;17.05;81.01
71151;BME280;59071;42.138;24.768;2023-05-18T02:39:21;99150.59;;;16.90;82.19
71151;BME280;59071;42.138;24.768;2023-05-18T02:41:47;99143.16;;;17.02;81.15
71151;BME280;59071;42.138;24.768;2023-05-18T02:44:12;99149.88;;;17.05;81.09
71151;BME280;59071;42.138;24.768;2023-05-18T02:46:37;99150.97;;;16.71;82.82
71151;BME280;59071;42.138;24.768;2023-05-18T02:49:02;99153.19;;;16.42;83.83
71151;BME280;59071;42.138;24.768;2023-05-18T02:51:28;99157.38;;;16.65;84.15
71151;BME280;59071;42.138;24.768;2023-05-18T02:53:54;99154.00;;;16.80;83.27
71151;BME280;59071;42.138;24.768;2023-05-18T02:56:19;99155.94;;;16.85;83.19
71151;BME280;59071;42.138;24.768;2023-05-18T02:58:45;99160.28;;;16.91;82.72
71151;BME280;59071;42.138;24.768;2023-05-18T03:01:10;99166.16;;;16.88;82.22
71151;BME280;59071;42.138;24.768;2023-05-18T03:03:38;99164.28;;;16.83;82.74
71151;BME280;59071;42.138;24.768;2023-05-18T03:06:06;99166.22;;;16.98;81.71
71151;BME280;59071;42.138;24.768;2023-05-18T03:08:32;99163.97;;;16.85;82.49
71151;BME280;59071;42.138;24.768;2023-05-18T03:10:57;99163.72;;;16.49;82.57
71151;BME280;59071;42.138;24.768;2023-05-18T03:13:23;99175.03;;;16.56;82.86
71151;BME280;59071;42.138;24.768;2023-05-18T03:15:48;99172.34;;;16.56;83.30
71151;BME280;59071;42.138;24.768;2023-05-18T03:18:15;99184.00;;;16.67;83.00
71151;BME280;59071;42.138;24.768;2023-05-18T03:20:40;99188.31;;;16.73;82.13
71151;BME280;59071;42.138;24.768;2023-05-18T03:23:05;99190.91;;;16.90;81.35
71151;BME280;59071;42.138;24.768;2023-05-18T03:25:31;99191.31;;;16.76;80.66
71151;BME280;59071;42.138;24.768;2023-05-18T03:27:56;99203.75;;;16.83;81.19
71151;BME280;59071;42.138;24.768;2023-05-18T03:30:22;99201.66;;;16.90;80.74
71151;BME280;59071;42.138;24.768;2023-05-18T03:32:47;99205.72;;;16.65;80.94
71151;BME280;59071;42.138;24.768;2023-05-18T03:35:13;99200.06;;;16.61;81.99
71151;BME280;59071;42.138;24.768;2023-05-18T03:37:38;99207.72;;;16.80;81.25
71151;BME280;59071;42.138;24.768;2023-05-18T03:40:11;99209.66;;;16.85;81.57
71151;BME280;59071;42.138;24.768;2023-05-18T03:42:37;99205.97;;;16.91;81.75
71151;BME280;59071;42.138;24.768;2023-05-18T03:45:03;99204.44;;;17.05;81.40
71151;BME280;59071;42.138;24.768;2023-05-18T03:47:28;99205.25;;;17.06;80.70
71151;BME280;59071;42.138;24.768;2023-05-18T03:49:54;99211.50;;;17.16;80.30
71151;BME280;59071;42.138;24.768;2023-05-18T03:52:19;99207.56;;;17.29;80.20
71151;BME280;59071;42.138;24.768;2023-05-18T03:54:46;99206.72;;;17.24;80.25
71151;BME280;59071;42.138;24.768;2023-05-18T03:57:12;99212.59;;;17.20;80.88
71151;BME280;59071;42.138;24.768;2023-05-18T03:59:37;99214.31;;;17.37;80.45
71151;BME280;59071;42.138;24.768;2023-05-18T04:02:02;99213.47;;;17.31;80.18
71151;BME280;59071;42.138;24.768;2023-05-18T04:04:28;99220.75;;;17.31;79.77
71151;BME280;59071;42.138;24.768;2023-05-18T04:06:54;99222.41;;;17.42;79.01
71151;BME280;59071;42.138;24.768;2023-05-18T04:09:20;99228.22;;;17.24;79.96
71151;BME280;59071;42.138;24.768;2023-05-18T04:11:47;99228.97;;;17.19;80.01
71151;BME280;59071;42.138;24.768;2023-05-18T04:14:13;99226.47;;;17.02;79.68
71151;BME280;59071;42.138;24.768;2023-05-18T04:16:39;99221.78;;;16.60;81.92
71151;BME280;59071;42.138;24.768;2023-05-18T04:19:05;99228.13;;;16.44;83.12
71151;BME280;59071;42.138;24.768;2023-05-18T04:21:31;99224.41;;;16.22;83.72
71151;BME280;59071;42.138;24.768;2023-05-18T04:24:00;99231.38;;;16.18;85.44
71151;BME280;59071;42.138;24.768;2023-05-18T04:26:29;99232.06;;;16.36;84.70
71151;BME280;59071;42.138;24.768;2023-05-18T04:28:54;99234.53;;;16.15;85.31
71151;BME280;59071;42.138;24.768;2023-05-18T04:31:24;99238.19;;;16.31;86.05
71151;BME280;59071;42.138;24.768;2023-05-18T04:33:50;99243.22;;;16.50;85.61
71151;BME280;59071;42.138;24.768;2023-05-18T04:36:16;99241.91;;;16.85;84.69
71151;BME280;59071;42.138;24.768;2023-05-18T04:38:43;99241.41;;;16.88;85.12
71151;BME280;59071;42.138;24.768;2023-05-18T04:41:09;99243.41;;;16.70;85.93
71151;BME280;59071;42.138;24.768;2023-05-18T04:43:34;99247.84;;;17.24;85.43
71151;BME280;59071;42.138;24.768;2023-05-18T04:46:00;99249.94;;;17.59;82.95
71151;BME280;59071;42.138;24.768;2023-05-18T04:48:25;99247.84;;;17.72;80.53
71151;BME280;59071;42.138;24.768;2023-05-18T04:50:51;99243.31;;;17.83;79.53
71151;BME280;59071;42.138;24.768;2023-05-18T04:53:20;99244.72;;;17.90;79.13
71151;BME280;59071;42.138;24.768;2023-05-18T04:55:46;99256.03;;;18.03;78.39
71151;BME280;59071;42.138;24.768;2023-05-18T04:58:14;99257.69;;;18.04;77.86
71151;BME280;59071;42.138;24.768;2023-05-18T05:00:39;99252.88;;;18.11;77.29
71151;BME280;59071;42.138;24.768;2023-05-18T05:03:04;99259.53;;;17.98;77.17
71151;BME280;59071;42.138;24.768;2023-05-18T05:05:30;99255.53;;;18.06;76.81
71151;BME280;59071;42.138;24.768;2023-05-18T05:07:55;99250.94;;;18.06;76.34
71151;BME280;59071;42.138;24.768;2023-05-18T05:10:21;99252.53;;;17.97;76.57
71151;BME280;59071;42.138;24.768;2023-05-18T05:12:48;99254.38;;;17.91;77.14
71151;BME280;59071;42.138;24.768;2023-05-18T05:15:13;99256.25;;;17.86;77.65
71151;BME280;59071;42.138;24.768;2023-05-18T05:17:38;99254.06;;;17.83;77.84
71151;BME280;59071;42.138;24.768;2023-05-18T05:20:04;99261.94;;;17.84;78.39
71151;BME280;59071;42.138;24.768;2023-05-18T05:22:29;99264.78;;;17.72;78.50
71151;BME280;59071;42.138;24.768;2023-05-18T05:24:55;99260.50;;;17.76;78.59
71151;BME280;59071;42.138;24.768;2023-05-18T05:27:20;99262.66;;;17.74;78.38
71151;BME280;59071;42.138;24.768;2023-05-18T05:29:46;99278.53;;;17.76;79.99
71151;BME280;59071;42.138;24.768;2023-05-18T05:32:14;99282.56;;;17.73;78.97
71151;BME280;59071;42.138;24.768;2023-05-18T05:34:39;99285.38;;;17.94;82.03
71151;BME280;59071;42.138;24.768;2023-05-18T05:37:05;99290.56;;;18.16;79.51
71151;BME280;59071;42.138;24.768;2023-05-18T05:39:30;99287.88;;;18.16;78.06
71151;BME280;59071;42.138;24.768;2023-05-18T05:41:55;99290.81;;;18.09;78.25
71151;BME280;59071;42.138;24.768;2023-05-18T05:44:21;99288.13;;;18.09;78.37
71151;BME280;59071;42.138;24.768;2023-05-18T05:46:46;99296.75;;;18.22;77.60
71151;BME280;59071;42.138;24.768;2023-05-18T05:49:12;99299.13;;;18.03;77.07
71151;BME280;59071;42.138;24.768;2023-05-18T05:51:37;99294.84;;;18.07;77.32
71151;BME280;59071;42.138;24.768;2023-05-18T05:54:02;99299.19;;;18.18;77.17
71151;BME280;59071;42.138;24.768;2023-05-18T05:56:28;99311.25;;;18.10;76.81
71151;BME280;59071;42.138;24.768;2023-05-18T05:58:53;99315.81;;;18.00;77.68
71151;BME280;59071;42.138;24.768;2023-05-18T06:01:18;99320.44;;;18.09;77.86
71151;BME280;59071;42.138;24.768;2023-05-18T06:03:44;99316.72;;;18.21;76.85
71151;BME280;59071;42.138;24.768;2023-05-18T06:06:09;99317.47;;;18.16;76.58
71151;BME280;59071;42.138;24.768;2023-05-18T06:08:35;99328.41;;;17.89;78.06
71151;BME280;59071;42.138;24.768;2023-05-18T06:11:00;99326.66;;;17.67;78.76
71151;BME280;59071;42.138;24.768;2023-05-18T06:13:25;99327.00;;;17.81;79.05
71151;BME280;59071;42.138;24.768;2023-05-18T06:15:51;99340.03;;;18.05;78.11
71151;BME280;59071;42.138;24.768;2023-05-18T06:18:16;99334.44;;;18.11;76.96
71151;BME280;59071;42.138;24.768;2023-05-18T06:20:41;99331.22;;;18.14;77.13
71151;BME280;59071;42.138;24.768;2023-05-18T06:23:07;99334.94;;;18.08;77.69
71151;BME280;59071;42.138;24.768;2023-05-18T06:25:32;99332.06;;;18.20;77.36
71151;BME280;59071;42.138;24.768;2023-05-18T06:27:59;99345.53;;;18.25;75.93
71151;BME280;59071;42.138;24.768;2023-05-18T06:30:24;99352.28;;;18.28;76.37
71151;BME280;59071;42.138;24.768;2023-05-18T06:32:50;99354.69;;;18.24;76.41
71151;BME280;59071;42.138;24.768;2023-05-18T06:35:15;99351.72;;;18.26;76.80
71151;BME280;59071;42.138;24.768;2023-05-18T06:37:40;99359.19;;;18.08;77.87
71151;BME280;59071;42.138;24.768;2023-05-18T06:40:06;99361.03;;;18.03;78.53
71151;BME280;59071;42.138;24.768;2023-05-18T06:42:32;99363.03;;;17.75;80.21
71151;BME280;59071;42.138;24.768;2023-05-18T06:44:57;99376.34;;;17.97;79.74
71151;BME280;59071;42.138;24.768;2023-05-18T06:47:22;99371.84;;;18.08;79.87
71151;BME280;59071;42.138;24.768;2023-05-18T06:49:47;99376.44;;;18.07;78.96
71151;BME280;59071;42.138;24.768;2023-05-18T06:52:13;99379.97;;;18.18;78.32
71151;BME280;59071;42.138;24.768;2023-05-18T06:54:38;99385.53;;;17.96;78.15
71151;BME280;59071;42.138;24.768;2023-05-18T06:57:03;99384.84;;;17.78;79.70
71151;BME280;59071;42.138;24.768;2023-05-18T06:59:29;99395.88;;;17.77;79.88
71151;BME280;59071;42.138;24.768;2023-05-18T07:01:54;99395.31;;;17.75;79.51
71151;BME280;59071;42.138;24.768;2023-05-18T07:04:19;99397.34;;;17.90;78.71
71151;BME280;59071;42.138;24.768;2023-05-18T07:06:45;99403.00;;;17.56;80.26
71151;BME280;59071;42.138;24.768;2023-05-18T07:09:10;99405.00;;;17.06;82.70
71151;BME280;59071;42.138;24.768;2023-05-18T07:11:36;99402.03;;;17.40;81.06
71151;BME280;59071;42.138;24.768;2023-05-18T07:14:01;99398.97;;;17.26;81.27
71151;BME280;59071;42.138;24.768;2023-05-18T07:16:26;99402.63;;;17.15;81.88
71151;BME280;59071;42.138;24.768;2023-05-18T07:18:52;99402.31;;;17.38;80.92
71151;BME280;59071;42.138;24.768;2023-05-18T07:21:17;99401.66;;;17.58;80.52
71151;BME280;59071;42.138;24.768;2023-05-18T07:23:43;99411.91;;;17.62;79.44
71151;BME280;59071;42.138;24.768;2023-05-18T07:26:08;99411.88;;;17.24;81.15
71151;BME280;59071;42.138;24.768;2023-05-18T07:28:35;99416.50;;;17.29;82.22
71151;BME280;59071;42.138;24.768;2023-05-18T07:31:01;99426.53;;;17.11;82.09
71151;BME280;59071;42.138;24.768;2023-05-18T07:33:26;99418.66;;;17.32;81.22
71151;BME280;59071;42.138;24.768;2023-05-18T07:35:51;99413.34;;;17.10;82.05
71151;BME280;59071;42.138;24.768;2023-05-18T07:38:17;99418.03;;;17.57;80.71
71151;BME280;59071;42.138;24.768;2023-05-18T07:40:42;99420.97;;;17.50;80.80
71151;BME280;59071;42.138;24.768;2023-05-18T07:43:07;99411.88;;;17.56;82.16
71151;BME280;59071;42.138;24.768;2023-05-18T07:45:32;99417.53;;;17.60;81.52
71151;BME280;59071;42.138;24.768;2023-05-18T07:47:58;99412.13;;;17.55;80.61
71151;BME280;59071;42.138;24.768;2023-05-18T07:50:24;99411.34;;;17.59;79.15
71151;BME280;59071;42.138;24.768;2023-05-18T07:52:50;99412.50;;;17.69;78.22
71151;BME280;59071;42.138;24.768;2023-05-18T07:55:15;99420.47;;;17.91;77.99
71151;BME280;59071;42.138;24.768;2023-05-18T07:57:41;99412.19;;;17.97;77.58
71151;BME280;59071;42.138;24.768;2023-05-18T08:00:06;99413.03;;;18.03;78.13
71151;BME280;59071;42.138;24.768;2023-05-18T08:02:33;99424.44;;;18.26;77.08
71151;BME280;59071;42.138;24.768;2023-05-18T08:04:59;99431.59;;;18.52;75.69
71151;BME280;59071;42.138;24.768;2023-05-18T08:07:24;99432.91;;;18.50;76.00
71151;BME280;59071;42.138;24.768;2023-05-18T08:09:50;99429.16;;;18.56;75.18
71151;BME280;59071;42.138;24.768;2023-05-18T08:12:16;99441.31;;;18.59;74.03
71151;BME280;59071;42.138;24.768;2023-05-18T08:14:41;99439.66;;;18.00;73.45
71151;BME280;59071;42.138;24.768;2023-05-18T08:17:06;99441.78;;;18.50;71.71
71151;BME280;59071;42.138;24.768;2023-05-18T08:19:31;99445.50;;;18.97;70.34
71151;BME280;59071;42.138;24.768;2023-05-18T08:21:57;99448.25;;;19.33;68.23
71151;BME280;59071;42.138;24.768;2023-05-18T08:24:22;99447.41;;;19.12;66.27
71151;BME280;59071;42.138;24.768;2023-05-18T08:26:47;99459.13;;;18.75;68.09
71151;BME280;59071;42.138;24.768;2023-05-18T08:29:12;99452.66;;;18.71;68.42
71151;BME280;59071;42.138;24.768;2023-05-18T08:31:38;99461.44;;;19.14;66.19
71151;BME280;59071;42.138;24.768;2023-05-18T08:34:05;99461.72;;;19.23;64.46
71151;BME280;59071;42.138;24.768;2023-05-18T08:36:30;99469.22;;;19.05;64.79
71151;BME280;59071;42.138;24.768;2023-05-18T08:38:57;99462.25;;;19.14;64.98
71151;BME280;59071;42.138;24.768;2023-05-18T08:41:25;99469.56;;;19.34;64.97
71151;BME280;59071;42.138;24.768;2023-05-18T08:43:54;99461.50;;;19.70;64.48
71151;BME280;59071;42.138;24.768;2023-05-18T08:48:49;99474.44;;;20.09;63.64
71151;BME280;59071;42.138;24.768;2023-05-18T08:51:17;99481.66;;;20.40;62.24
71151;BME280;59071;42.138;24.768;2023-05-18T08:53:43;99483.00;;;20.47;60.03
71151;BME280;59071;42.138;24.768;2023-05-18T08:56:09;99488.06;;;20.59;60.98
71151;BME280;59071;42.138;24.768;2023-05-18T08:58:37;99485.34;;;20.80;57.85
71151;BME280;59071;42.138;24.768;2023-05-18T09:01:07;99500.72;;;20.84;54.85
71151;BME280;59071;42.138;24.768;2023-05-18T09:03:32;99498.91;;;20.69;54.95
71151;BME280;59071;42.138;24.768;2023-05-18T09:05:58;99494.56;;;20.63;54.80
71151;BME280;59071;42.138;24.768;2023-05-18T09:08:25;99499.38;;;20.87;55.82
71151;BME280;59071;42.138;24.768;2023-05-18T09:10:50;99498.75;;;21.00;55.82
71151;BME280;59071;42.138;24.768;2023-05-18T09:13:17;99507.09;;;21.09;57.92
71151;BME280;59071;42.138;24.768;2023-05-18T09:15:44;99508.41;;;21.17;52.42
71151;BME280;59071;42.138;24.768;2023-05-18T09:18:10;99500.41;;;20.96;55.08
71151;BME280;59071;42.138;24.768;2023-05-18T09:20:35;99501.53;;;20.85;51.02
71151;BME280;59071;42.138;24.768;2023-05-18T09:23:00;99511.16;;;21.06;50.63
71151;BME280;59071;42.138;24.768;2023-05-18T09:25:26;99510.78;;;21.28;52.21
71151;BME280;59071;42.138;24.768;2023-05-18T09:27:54;99511.69;;;21.08;53.94
71151;BME280;59071;42.138;24.768;2023-05-18T09:30:19;99507.47;;;20.87;50.44
71151;BME280;59071;42.138;24.768;2023-05-18T09:32:45;99517.56;;;20.56;48.98
71151;BME280;59071;42.138;24.768;2023-05-18T09:35:11;99514.03;;;20.55;48.20
71151;BME280;59071;42.138;24.768;2023-05-18T09:37:36;99505.25;;;20.99;45.94
71151;BME280;59071;42.138;24.768;2023-05-18T09:40:05;99515.25;;;21.04;46.50
71151;BME280;59071;42.138;24.768;2023-05-18T09:42:35;99519.44;;;20.65;49.44
71151;BME280;59071;42.138;24.768;2023-05-18T09:45:06;99528.06;;;20.78;50.24
71151;BME280;59071;42.138;24.768;2023-05-18T09:47:39;99521.31;;;21.30;48.29
71151;BME280;59071;42.138;24.768;2023-05-18T09:50:04;99527.94;;;21.58;49.17
71151;BME280;59071;42.138;24.768;2023-05-18T09:52:30;99535.50;;;21.12;47.81
71151;BME280;59071;42.138;24.768;2023-05-18T09:54:58;99536.94;;;21.43;46.97
71151;BME280;59071;42.138;24.768;2023-05-18T09:57:28;99531.03;;;21.76;44.97
71151;BME280;59071;42.138;24.768;2023-05-18T09:59:54;99537.50;;;21.80;45.43
71151;BME280;59071;42.138;24.768;2023-05-18T10:02:20;99530.91;;;21.91;44.32
71151;BME280;59071;42.138;24.768;2023-05-18T10:04:49;99535.13;;;22.08;43.80
71151;BME280;59071;42.138;24.768;2023-05-18T10:07:15;99539.59;;;22.22;43.88
71151;BME280;59071;42.138;24.768;2023-05-18T10:09:41;99530.06;;;22.30;42.87
71151;BME280;59071;42.138;24.768;2023-05-18T10:12:10;99536.09;;;22.51;43.17
71151;BME280;59071;42.138;24.768;2023-05-18T10:14:36;99534.13;;;22.81;44.03
71151;BME280;59071;42.138;24.768;2023-05-18T10:17:04;99534.13;;;23.05;42.68
71151;BME280;59071;42.138;24.768;2023-05-18T10:19:30;99540.53;;;23.33;43.55
71151;BME280;59071;42.138;24.768;2023-05-18T10:21:58;99527.84;;;23.29;41.15
71151;BME280;59071;42.138;24.768;2023-05-18T10:24:25;99543.81;;;23.30;41.36
71151;BME280;59071;42.138;24.768;2023-05-18T10:26:50;99542.78;;;23.26;41.61
71151;BME280;59071;42.138;24.768;2023-05-18T10:29:17;99551.47;;;23.47;41.64
71151;BME280;59071;42.138;24.768;2023-05-18T10:31:42;99546.25;;;23.51;41.51
71151;BME280;59071;42.138;24.768;2023-05-18T10:34:08;99547.56;;;23.72;42.62
71151;BME280;59071;42.138;24.768;2023-05-18T10:36:35;99551.38;;;23.90;43.45
71151;BME280;59071;42.138;24.768;2023-05-18T10:39:02;99542.75;;;24.02;40.85
71151;BME280;59071;42.138;24.768;2023-05-18T10:41:27;99543.75;;;23.73;40.68
71151;BME280;59071;42.138;24.768;2023-05-18T10:43:55;99544.13;;;23.67;42.68
71151;BME280;59071;42.138;24.768;2023-05-18T10:46:27;99547.47;;;23.77;40.78
71151;BME280;59071;42.138;24.768;2023-05-18T10:48:53;99547.25;;;23.93;39.12
71151;BME280;59071;42.138;24.768;2023-05-18T10:51:19;99554.16;;;23.66;41.50
71151;BME280;59071;42.138;24.768;2023-05-18T10:53:45;99559.91;;;23.84;43.02
71151;BME280;59071;42.138;24.768;2023-05-18T10:56:12;99547.56;;;24.24;42.34
71151;BME280;59071;42.138;24.768;2023-05-18T10:58:39;99551.00;;;24.30;40.59
71151;BME280;59071;42.138;24.768;2023-05-18T11:01:06;99554.59;;;24.25;40.07
71151;BME280;59071;42.138;24.768;2023-05-18T11:03:33;99548.78;;;24.32;39.69
71151;BME280;59071;42.138;24.768;2023-05-18T11:06:05;99548.06;;;24.40;38.01
71151;BME280;59071;42.138;24.768;2023-05-18T11:08:31;99556.75;;;24.42;37.45
71151;BME280;59071;42.138;24.768;2023-05-18T11:11:01;99561.59;;;24.45;38.01
71151;BME280;59071;42.138;24.768;2023-05-18T11:13:31;99555.41;;;24.26;37.92
71151;BME280;59071;42.138;24.768;2023-05-18T11:21:20;99557.97;;;24.03;39.18
71151;BME280;59071;42.138;24.768;2023-05-18T11:24:11;99571.63;;;23.98;39.38
71151;BME280;59071;42.138;24.768;2023-05-18T11:26:31;99570.84;;;23.97;39.07
71151;BME280;59071;42.138;24.768;2023-05-18T11:28:57;99566.03;;;24.08;39.41
71151;BME280;59071;42.138;24.768;2023-05-18T11:31:27;99564.75;;;24.19;39.85
71151;BME280;59071;42.138;24.768;2023-05-18T11:36:51;99568.41;;;24.43;40.07
71151;BME280;59071;42.138;24.768;2023-05-18T11:39:22;99576.28;;;24.44;39.73
71151;BME280;59071;42.138;24.768;2023-05-18T11:41:57;99568.81;;;24.36;40.19
71151;BME280;59071;42.138;24.768;2023-05-18T11:44:23;99569.13;;;24.34;40.23
71151;BME280;59071;42.138;24.768;2023-05-18T11:46:52;99581.91;;;24.34;40.45
71151;BME280;59071;42.138;24.768;2023-05-18T11:49:19;99582.00;;;24.29;41.27
71151;BME280;59071;42.138;24.768;2023-05-18T11:52:27;99589.41;;;24.09;41.81
71151;BME280;59071;42.138;24.768;2023-05-18T11:57:15;99586.72;;;23.09;44.14
71151;BME280;59071;42.138;24.768;2023-05-18T11:59:47;99588.72;;;22.74;45.15
71151;BME280;59071;42.138;24.768;2023-05-18T12:02:17;99594.94;;;22.16;47.70
71151;BME280;59071;42.138;24.768;2023-05-18T12:04:44;99594.88;;;21.42;49.23
71151;BME280;59071;42.138;24.768;2023-05-18T12:07:10;99588.28;;;22.03;48.41
71151;BME280;59071;42.138;24.768;2023-05-18T12:09:37;99584.16;;;22.40;48.34
71151;BME280;59071;42.138;24.768;2023-05-18T12:12:04;99590.59;;;22.15;49.05
71151;BME280;59071;42.138;24.768;2023-05-18T12:14:29;99595.47;;;22.53;48.87
71151;BME280;59071;42.138;24.768;2023-05-18T12:16:56;99599.75;;;22.30;49.97
71151;BME280;59071;42.138;24.768;2023-05-18T12:19:21;99597.78;;;22.35;50.11
71151;BME280;59071;42.138;24.768;2023-05-18T12:21:47;99602.47;;;22.24;50.31
71151;BME280;59071;42.138;24.768;2023-05-18T12:24:13;99606.59;;;22.17;51.48
71151;BME280;59071;42.138;24.768;2023-05-18T12:26:38;99610.91;;;22.52;50.26
71151;BME280;59071;42.138;24.768;2023-05-18T12:29:05;99601.88;;;22.86;49.52
71151;BME280;59071;42.138;24.768;2023-05-18T12:31:30;99607.22;;;22.43;50.74
71151;BME280;59071;42.138;24.768;2023-05-18T12:33:56;99607.63;;;22.26;50.50
71151;BME280;59071;42.138;24.768;2023-05-18T12:36:21;99602.50;;;22.19;50.92
71151;BME280;59071;42.138;24.768;2023-05-18T12:38:47;99600.03;;;22.23;51.33
71151;BME280;59071;42.138;24.768;2023-05-18T12:41:20;99614.63;;;21.93;51.44
71151;BME280;59071;42.138;24.768;2023-05-18T12:43:46;99608.53;;;21.72;51.43
71151;BME280;59071;42.138;24.768;2023-05-18T12:46:11;99607.91;;;22.19;50.98
71151;BME280;59071;42.138;24.768;2023-05-18T12:48:36;99611.19;;;21.82;52.55
71151;BME280;59071;42.138;24.768;2023-05-18T12:51:02;99608.41;;;21.92;52.80
71151;BME280;59071;42.138;24.768;2023-05-18T12:53:40;99609.16;;;21.53;54.30
71151;BME280;59071;42.138;24.768;2023-05-18T12:56:05;99619.22;;;21.47;54.58
71151;BME280;59071;42.138;24.768;2023-05-18T12:58:33;99614.44;;;21.19;54.55
71151;BME280;59071;42.138;24.768;2023-05-18T13:01:05;99613.66;;;21.18;55.53
71151;BME280;59071;42.138;24.768;2023-05-18T13:03:31;99609.63;;;21.71;54.81
71151;BME280;59071;42.138;24.768;2023-05-18T13:06:04;99621.38;;;21.95;53.36
71151;BME280;59071;42.138;24.768;2023-05-18T13:08:30;99623.34;;;21.24;54.78